Stephenville, TX (76401)

6:47 AM CDT on August 28, 2016 (GMT -0500)
Calvary Baptist | | Change Station

Elev 1335 ft 32.23 °N, 98.23 °W | Updated 8 seconds ago

Clear
Clear
71.4 °F
Feels Like 71.4 °F
N
0.0
Wind Variable Wind from NW
Gusts 0.0 mph

Today
High -- | Low -- °F
--% Chance of Precip.
Yesterday
High -- | Low -- °F
Precip. -- in
Pressure 30.09 in
Visibility 5.0 miles
Clouds Clear
Dew Point 70 °F
Humidity 96%
Rainfall 0.00 in
Snow Depth Not available.
7:05 AM 8:01 PM
Waning Crescent, 16% visible
METAR KSEP 281135Z AUTO 00000KT 5SM CLR 22/20 A3009 RMK AO2 T02150200
Pressure 30.09 in
Visibility 5.0 miles
Clouds Clear
Dew Point 70 °F
Humidity 96%
Rainfall 0.00 in
Snow Depth Not available.
7:05 AM 8:01 PM
Waning Crescent, 16% visible
METAR KSEP 281135Z AUTO 00000KT 5SM CLR 22/20 A3009 RMK AO2 T02150200

10-Day Weather Forecast

Almanac

Astronomy

Aug. 28, 2016 Rise Set
Actual Time
Civil Twilight
Nautical Twilight
Astronomical Twilight
Moon
Length of Visible Light
Length of Day
Tomorrow will be .
, % of the Moon is Illuminated

Today's Extremes

State Highs State Lows

Community

WunderPhotos

Upload Photos

1,935,549 photos uploaded!

WunderBlog® & News

Nearby

Air Quality

  Air Quality AQ Index Pollutant
Not available.

Snow Depth

Station Depth Elevation

Earthquake Activity

City Distance Mag. Time & Date
Minimum magnitude displayed is 2.5.

Coastal Water Temperatures

Place Temperature

Stations

Nearby Weather Stations

Station Location Temp. Windchill Dew Point Humidity Wind Precip. Elev Updated Type
                   

Watches & Warnings

There are currently no watches in effect.